sensor_id;sensor_type;location;lat;lon;timestamp;P1;durP1;ratioP1;P2;durP2;ratioP2
69008;SDS011;56065;52.472;13.380;2023-04-01T00:01:03;6.77;;;1.83;;
69008;SDS011;56065;52.472;13.380;2023-04-01T00:03:30;8.55;;;1.90;;
69008;SDS011;56065;52.472;13.380;2023-04-01T00:05:58;7.85;;;2.05;;
69008;SDS011;56065;52.472;13.380;2023-04-01T00:08:24;6.78;;;2.08;;
69008;SDS011;56065;52.472;13.380;2023-04-01T00:10:51;7.20;;;1.92;;
69008;SDS011;56065;52.472;13.380;2023-04-01T00:13:17;8.13;;;1.83;;
69008;SDS011;56065;52.472;13.380;2023-04-01T00:15:42;6.13;;;1.70;;
69008;SDS011;56065;52.472;13.380;2023-04-01T00:18:08;5.83;;;1.80;;
69008;SDS011;56065;52.472;13.380;2023-04-01T00:20:33;6.27;;;1.77;;
69008;SDS011;56065;52.472;13.380;2023-04-01T00:22:59;7.82;;;1.77;;
69008;SDS011;56065;52.472;13.380;2023-04-01T00:25:25;7.07;;;2.00;;
69008;SDS011;56065;52.472;13.380;2023-04-01T00:27:50;6.27;;;1.90;;
69008;SDS011;56065;52.472;13.380;2023-04-01T00:30:16;5.10;;;1.60;;
69008;SDS011;56065;52.472;13.380;2023-04-01T00:32:41;7.13;;;1.80;;
69008;SDS011;56065;52.472;13.380;2023-04-01T00:35:07;5.68;;;1.55;;
69008;SDS011;56065;52.472;13.380;2023-04-01T00:37:34;5.53;;;1.43;;
69008;SDS011;56065;52.472;13.380;2023-04-01T00:40:02;5.32;;;1.58;;
69008;SDS011;56065;52.472;13.380;2023-04-01T00:42:28;4.32;;;1.05;;
69008;SDS011;56065;52.472;13.380;2023-04-01T00:44:54;6.00;;;1.50;;
69008;SDS011;56065;52.472;13.380;2023-04-01T00:47:20;5.03;;;1.00;;
69008;SDS011;56065;52.472;13.380;2023-04-01T00:49:48;3.70;;;0.95;;
69008;SDS011;56065;52.472;13.380;2023-04-01T00:52:17;6.03;;;1.27;;
69008;SDS011;56065;52.472;13.380;2023-04-01T00:54:47;7.50;;;1.42;;
69008;SDS011;56065;52.472;13.380;2023-04-01T00:57:16;7.00;;;1.90;;
69008;SDS011;56065;52.472;13.380;2023-04-01T00:59:47;4.97;;;1.40;;
69008;SDS011;56065;52.472;13.380;2023-04-01T01:02:17;4.80;;;1.48;;
69008;SDS011;56065;52.472;13.380;2023-04-01T01:04:44;5.33;;;1.27;;
69008;SDS011;56065;52.472;13.380;2023-04-01T01:12:40;6.68;;;1.55;;
69008;SDS011;56065;52.472;13.380;2023-04-01T01:15:20;6.40;;;1.40;;
69008;SDS011;56065;52.472;13.380;2023-04-01T01:22:54;6.88;;;1.50;;
69008;SDS011;56065;52.472;13.380;2023-04-01T01:25:29;6.28;;;1.50;;
69008;SDS011;56065;52.472;13.380;2023-04-01T01:30:35;5.07;;;1.10;;
69008;SDS011;56065;52.472;13.380;2023-04-01T01:33:25;4.53;;;1.13;;
69008;SDS011;56065;52.472;13.380;2023-04-01T01:36:23;5.22;;;1.23;;
69008;SDS011;56065;52.472;13.380;2023-04-01T01:38:56;4.18;;;1.15;;
69008;SDS011;56065;52.472;13.380;2023-04-01T01:41:22;6.05;;;1.05;;
69008;SDS011;56065;52.472;13.380;2023-04-01T01:43:51;4.80;;;1.23;;
69008;SDS011;56065;52.472;13.380;2023-04-01T01:46:21;6.35;;;1.30;;
69008;SDS011;56065;52.472;13.380;2023-04-01T01:48:48;6.45;;;1.20;;
69008;SDS011;56065;52.472;13.380;2023-04-01T01:51:16;7.70;;;1.48;;
69008;SDS011;56065;52.472;13.380;2023-04-01T01:53:43;4.15;;;1.00;;
69008;SDS011;56065;52.472;13.380;2023-04-01T01:56:09;6.33;;;1.53;;
69008;SDS011;56065;52.472;13.380;2023-04-01T01:58:42;4.88;;;1.40;;
69008;SDS011;56065;52.472;13.380;2023-04-01T02:01:11;5.47;;;1.00;;
69008;SDS011;56065;52.472;13.380;2023-04-01T02:03:39;5.87;;;1.10;;
69008;SDS011;56065;52.472;13.380;2023-04-01T02:06:07;4.65;;;1.15;;
69008;SDS011;56065;52.472;13.380;2023-04-01T02:08:36;5.43;;;1.00;;
69008;SDS011;56065;52.472;13.380;2023-04-01T02:11:10;5.47;;;1.02;;
69008;SDS011;56065;52.472;13.380;2023-04-01T02:13:46;6.13;;;1.00;;
69008;SDS011;56065;52.472;13.380;2023-04-01T02:17:04;5.70;;;1.10;;
69008;SDS011;56065;52.472;13.380;2023-04-01T02:19:08;5.88;;;1.27;;
69008;SDS011;56065;52.472;13.380;2023-04-01T02:21:35;5.50;;;1.17;;
69008;SDS011;56065;52.472;13.380;2023-04-01T02:24:04;6.50;;;1.25;;
69008;SDS011;56065;52.472;13.380;2023-04-01T02:26:32;7.03;;;1.35;;
69008;SDS011;56065;52.472;13.380;2023-04-01T02:28:59;8.33;;;1.20;;
69008;SDS011;56065;52.472;13.380;2023-04-01T02:31:26;8.32;;;1.20;;
69008;SDS011;56065;52.472;13.380;2023-04-01T02:33:52;5.15;;;1.20;;
69008;SDS011;56065;52.472;13.380;2023-04-01T02:36:18;4.68;;;1.40;;
69008;SDS011;56065;52.472;13.380;2023-04-01T02:38:44;8.17;;;1.33;;
69008;SDS011;56065;52.472;13.380;2023-04-01T02:41:10;5.90;;;1.30;;
69008;SDS011;56065;52.472;13.380;2023-04-01T02:43:36;5.75;;;1.52;;
69008;SDS011;56065;52.472;13.380;2023-04-01T02:46:02;4.63;;;1.30;;
69008;SDS011;56065;52.472;13.380;2023-04-01T02:48:27;7.73;;;1.60;;
69008;SDS011;56065;52.472;13.380;2023-04-01T02:50:53;7.82;;;1.65;;
69008;SDS011;56065;52.472;13.380;2023-04-01T02:53:19;6.47;;;1.40;;
69008;SDS011;56065;52.472;13.380;2023-04-01T02:55:44;7.32;;;1.45;;
69008;SDS011;56065;52.472;13.380;2023-04-01T02:58:10;4.93;;;1.60;;
69008;SDS011;56065;52.472;13.380;2023-04-01T03:00:35;6.07;;;1.80;;
69008;SDS011;56065;52.472;13.380;2023-04-01T03:03:01;7.30;;;1.60;;
69008;SDS011;56065;52.472;13.380;2023-04-01T03:05:27;7.18;;;1.85;;
69008;SDS011;56065;52.472;13.380;2023-04-01T03:07:53;7.93;;;2.07;;
69008;SDS011;56065;52.472;13.380;2023-04-01T03:10:18;6.17;;;1.60;;
69008;SDS011;56065;52.472;13.380;2023-04-01T03:12:44;6.82;;;1.48;;
69008;SDS011;56065;52.472;13.380;2023-04-01T03:15:10;7.93;;;2.07;;
69008;SDS011;56065;52.472;13.380;2023-04-01T03:17:39;8.35;;;2.15;;
69008;SDS011;56065;52.472;13.380;2023-04-01T03:20:05;5.78;;;1.60;;
69008;SDS011;56065;52.472;13.380;2023-04-01T03:22:31;8.60;;;1.83;;
69008;SDS011;56065;52.472;13.380;2023-04-01T03:24:56;7.47;;;1.92;;
69008;SDS011;56065;52.472;13.380;2023-04-01T03:27:22;7.40;;;1.70;;
69008;SDS011;56065;52.472;13.380;2023-04-01T03:29:48;11.77;;;2.10;;
69008;SDS011;56065;52.472;13.380;2023-04-01T03:32:13;6.93;;;2.00;;
69008;SDS011;56065;52.472;13.380;2023-04-01T03:34:39;8.70;;;2.20;;
69008;SDS011;56065;52.472;13.380;2023-04-01T03:37:04;8.07;;;2.20;;
69008;SDS011;56065;52.472;13.380;2023-04-01T03:39:30;9.00;;;2.13;;
69008;SDS011;56065;52.472;13.380;2023-04-01T03:41:56;8.20;;;2.35;;
69008;SDS011;56065;52.472;13.380;2023-04-01T03:44:21;7.03;;;2.00;;
69008;SDS011;56065;52.472;13.380;2023-04-01T03:46:47;8.67;;;2.17;;
69008;SDS011;56065;52.472;13.380;2023-04-01T03:49:12;6.17;;;1.80;;
69008;SDS011;56065;52.472;13.380;2023-04-01T03:51:41;9.10;;;2.20;;
69008;SDS011;56065;52.472;13.380;2023-04-01T03:54:08;8.23;;;2.08;;
69008;SDS011;56065;52.472;13.380;2023-04-01T03:56:34;9.80;;;2.60;;
69008;SDS011;56065;52.472;13.380;2023-04-01T03:59:03;7.27;;;2.43;;
69008;SDS011;56065;52.472;13.380;2023-04-01T04:01:30;8.77;;;2.25;;
69008;SDS011;56065;52.472;13.380;2023-04-01T04:03:56;9.52;;;2.58;;
69008;SDS011;56065;52.472;13.380;2023-04-01T04:06:21;9.17;;;2.30;;
69008;SDS011;56065;52.472;13.380;2023-04-01T04:08:48;6.43;;;2.10;;
69008;SDS011;56065;52.472;13.380;2023-04-01T04:11:13;8.50;;;2.50;;
69008;SDS011;56065;52.472;13.380;2023-04-01T04:13:39;8.97;;;2.33;;
69008;SDS011;56065;52.472;13.380;2023-04-01T04:16:04;10.23;;;2.40;;
69008;SDS011;56065;52.472;13.380;2023-04-01T04:18:30;8.27;;;2.20;;
69008;SDS011;56065;52.472;13.380;2023-04-01T04:20:55;6.97;;;2.13;;
69008;SDS011;56065;52.472;13.380;2023-04-01T04:23:21;7.83;;;2.40;;
69008;SDS011;56065;52.472;13.380;2023-04-01T04:26:03;7.00;;;1.98;;
69008;SDS011;56065;52.472;13.380;2023-04-01T04:28:30;8.13;;;2.17;;
69008;SDS011;56065;52.472;13.380;2023-04-01T04:30:55;8.70;;;2.50;;
69008;SDS011;56065;52.472;13.380;2023-04-01T04:33:21;10.17;;;2.50;;
69008;SDS011;56065;52.472;13.380;2023-04-01T04:35:48;7.13;;;2.15;;
69008;SDS011;56065;52.472;13.380;2023-04-01T04:38:14;7.78;;;1.90;;
69008;SDS011;56065;52.472;13.380;2023-04-01T04:40:40;7.27;;;1.70;;
69008;SDS011;56065;52.472;13.380;2023-04-01T04:43:06;8.98;;;2.47;;
69008;SDS011;56065;52.472;13.380;2023-04-01T04:45:31;6.40;;;2.10;;
69008;SDS011;56065;52.472;13.380;2023-04-01T04:47:57;7.93;;;2.07;;
69008;SDS011;56065;52.472;13.380;2023-04-01T04:50:22;7.63;;;1.67;;
69008;SDS011;56065;52.472;13.380;2023-04-01T04:52:48;10.60;;;2.40;;
69008;SDS011;56065;52.472;13.380;2023-04-01T04:55:13;9.80;;;1.93;;
69008;SDS011;56065;52.472;13.380;2023-04-01T04:57:40;7.45;;;1.95;;
69008;SDS011;56065;52.472;13.380;2023-04-01T05:00:06;9.05;;;2.20;;
69008;SDS011;56065;52.472;13.380;2023-04-01T05:02:32;8.60;;;1.90;;
69008;SDS011;56065;52.472;13.380;2023-04-01T05:04:57;7.22;;;1.85;;
69008;SDS011;56065;52.472;13.380;2023-04-01T05:07:23;8.10;;;2.03;;
69008;SDS011;56065;52.472;13.380;2023-04-01T05:09:48;6.60;;;2.40;;
69008;SDS011;56065;52.472;13.380;2023-04-01T05:12:13;7.43;;;2.13;;
69008;SDS011;56065;52.472;13.380;2023-04-01T05:14:39;7.67;;;2.50;;
69008;SDS011;56065;52.472;13.380;2023-04-01T05:17:08;7.60;;;2.20;;
69008;SDS011;56065;52.472;13.380;2023-04-01T05:19:34;6.07;;;1.83;;
69008;SDS011;56065;52.472;13.380;2023-04-01T05:21:59;7.03;;;1.70;;
69008;SDS011;56065;52.472;13.380;2023-04-01T05:24:25;7.03;;;2.50;;
69008;SDS011;56065;52.472;13.380;2023-04-01T05:26:50;7.13;;;2.07;;
69008;SDS011;56065;52.472;13.380;2023-04-01T05:29:16;9.57;;;2.07;;
69008;SDS011;56065;52.472;13.380;2023-04-01T05:31:41;7.10;;;2.23;;
69008;SDS011;56065;52.472;13.380;2023-04-01T05:34:06;8.17;;;2.50;;
69008;SDS011;56065;52.472;13.380;2023-04-01T05:36:32;6.72;;;1.90;;
69008;SDS011;56065;52.472;13.380;2023-04-01T05:38:57;10.07;;;2.60;;
69008;SDS011;56065;52.472;13.380;2023-04-01T05:41:22;6.83;;;2.00;;
69008;SDS011;56065;52.472;13.380;2023-04-01T05:43:48;7.27;;;1.60;;
69008;SDS011;56065;52.472;13.380;2023-04-01T05:46:13;10.03;;;1.93;;
69008;SDS011;56065;52.472;13.380;2023-04-01T05:48:38;7.37;;;2.00;;
69008;SDS011;56065;52.472;13.380;2023-04-01T05:51:04;7.43;;;1.80;;
69008;SDS011;56065;52.472;13.380;2023-04-01T05:53:30;6.20;;;1.33;;
69008;SDS011;56065;52.472;13.380;2023-04-01T05:55:55;5.80;;;1.60;;
69008;SDS011;56065;52.472;13.380;2023-04-01T05:58:20;9.18;;;1.58;;
69008;SDS011;56065;52.472;13.380;2023-04-01T06:00:46;7.47;;;1.67;;
69008;SDS011;56065;52.472;13.380;2023-04-01T06:03:11;10.47;;;2.00;;
69008;SDS011;56065;52.472;13.380;2023-04-01T06:05:40;7.27;;;1.80;;
69008;SDS011;56065;52.472;13.380;2023-04-01T06:08:14;8.68;;;1.95;;
69008;SDS011;56065;52.472;13.380;2023-04-01T06:16:30;8.13;;;2.20;;
69008;SDS011;56065;52.472;13.380;2023-04-01T06:20:06;9.18;;;2.47;;
69008;SDS011;56065;52.472;13.380;2023-04-01T06:35:48;9.63;;;2.40;;
69008;SDS011;56065;52.472;13.380;2023-04-01T06:38:31;7.10;;;1.83;;
69008;SDS011;56065;52.472;13.380;2023-04-01T06:46:45;8.52;;;2.55;;
69008;SDS011;56065;52.472;13.380;2023-04-01T06:49:20;6.87;;;2.00;;
69008;SDS011;56065;52.472;13.380;2023-04-01T06:51:50;7.78;;;1.85;;
69008;SDS011;56065;52.472;13.380;2023-04-01T06:54:27;6.10;;;1.60;;
69008;SDS011;56065;52.472;13.380;2023-04-01T06:57:00;7.88;;;1.85;;
69008;SDS011;56065;52.472;13.380;2023-04-01T06:59:32;7.65;;;2.20;;
69008;SDS011;56065;52.472;13.380;2023-04-01T07:02:11;4.30;;;1.70;;
69008;SDS011;56065;52.472;13.380;2023-04-01T07:04:48;6.68;;;1.65;;
69008;SDS011;56065;52.472;13.380;2023-04-01T07:07:21;6.70;;;1.80;;
69008;SDS011;56065;52.472;13.380;2023-04-01T07:09:55;7.97;;;1.52;;
69008;SDS011;56065;52.472;13.380;2023-04-01T07:15:04;13.33;;;2.63;;
69008;SDS011;56065;52.472;13.380;2023-04-01T07:17:38;7.70;;;2.20;;
69008;SDS011;56065;52.472;13.380;2023-04-01T07:20:11;7.57;;;2.13;;
69008;SDS011;56065;52.472;13.380;2023-04-01T07:22:59;8.32;;;2.10;;
69008;SDS011;56065;52.472;13.380;2023-04-01T07:28:13;6.77;;;2.27;;
69008;SDS011;56065;52.472;13.380;2023-04-01T07:33:19;7.25;;;1.95;;
69008;SDS011;56065;52.472;13.380;2023-04-01T07:36:12;6.90;;;1.90;;
69008;SDS011;56065;52.472;13.380;2023-04-01T07:38:48;7.07;;;2.10;;
69008;SDS011;56065;52.472;13.380;2023-04-01T07:41:28;7.53;;;2.10;;
69008;SDS011;56065;52.472;13.380;2023-04-01T07:44:12;11.23;;;2.65;;
69008;SDS011;56065;52.472;13.380;2023-04-01T07:47:17;6.75;;;1.60;;
69008;SDS011;56065;52.472;13.380;2023-04-01T07:52:29;5.80;;;1.65;;
69008;SDS011;56065;52.472;13.380;2023-04-01T07:55:08;5.73;;;1.60;;
69008;SDS011;56065;52.472;13.380;2023-04-01T08:02:59;8.52;;;1.60;;
69008;SDS011;56065;52.472;13.380;2023-04-01T08:22:22;6.18;;;1.48;;
69008;SDS011;56065;52.472;13.380;2023-04-01T08:24:52;4.20;;;1.20;;
69008;SDS011;56065;52.472;13.380;2023-04-01T08:27:31;6.15;;;1.20;;
69008;SDS011;56065;52.472;13.380;2023-04-01T08:33:28;8.93;;;1.67;;
69008;SDS011;56065;52.472;13.380;2023-04-01T08:38:59;6.97;;;1.92;;
69008;SDS011;56065;52.472;13.380;2023-04-01T09:01:44;5.83;;;2.17;;
69008;SDS011;56065;52.472;13.380;2023-04-01T09:07:00;6.95;;;2.60;;
69008;SDS011;56065;52.472;13.380;2023-04-01T09:10:11;6.25;;;2.60;;
69008;SDS011;56065;52.472;13.380;2023-04-01T09:13:05;6.43;;;2.42;;
69008;SDS011;56065;52.472;13.380;2023-04-01T09:16:17;7.43;;;3.27;;
69008;SDS011;56065;52.472;13.380;2023-04-01T09:18:59;10.32;;;3.65;;
69008;SDS011;56065;52.472;13.380;2023-04-01T09:22:01;8.45;;;4.00;;
69008;SDS011;56065;52.472;13.380;2023-04-01T09:24:44;8.43;;;3.55;;
69008;SDS011;56065;52.472;13.380;2023-04-01T09:27:28;8.65;;;4.30;;
69008;SDS011;56065;52.472;13.380;2023-04-01T09:38:22;8.63;;;4.03;;
69008;SDS011;56065;52.472;13.380;2023-04-01T09:43:39;10.00;;;4.50;;
69008;SDS011;56065;52.472;13.380;2023-04-01T09:52:01;9.02;;;4.35;;
69008;SDS011;56065;52.472;13.380;2023-04-01T10:00:39;11.30;;;5.70;;
69008;SDS011;56065;52.472;13.380;2023-04-01T10:11:57;12.03;;;6.60;;
69008;SDS011;56065;52.472;13.380;2023-04-01T10:34:17;10.77;;;6.32;;
69008;SDS011;56065;52.472;13.380;2023-04-01T10:56:58;10.53;;;5.77;;
69008;SDS011;56065;52.472;13.380;2023-04-01T10:59:42;8.63;;;4.90;;
69008;SDS011;56065;52.472;13.380;2023-04-01T11:05:24;8.70;;;4.47;;
69008;SDS011;56065;52.472;13.380;2023-04-01T11:21:54;6.57;;;3.45;;
69008;SDS011;56065;52.472;13.380;2023-04-01T11:24:42;6.23;;;2.90;;
69008;SDS011;56065;52.472;13.380;2023-04-01T12:27:29;5.60;;;2.37;;
69008;SDS011;56065;52.472;13.380;2023-04-01T12:30:09;13.00;;;5.88;;
69008;SDS011;56065;52.472;13.380;2023-04-01T12:40:31;11.80;;;5.47;;
69008;SDS011;56065;52.472;13.380;2023-04-01T12:45:54;8.75;;;4.30;;
69008;SDS011;56065;52.472;13.380;2023-04-01T12:51:37;7.55;;;2.97;;
69008;SDS011;56065;52.472;13.380;2023-04-01T13:02:48;6.63;;;3.13;;
69008;SDS011;56065;52.472;13.380;2023-04-01T13:05:28;6.60;;;3.28;;
69008;SDS011;56065;52.472;13.380;2023-04-01T13:14:37;6.22;;;2.95;;
69008;SDS011;56065;52.472;13.380;2023-04-01T13:17:16;7.32;;;3.35;;
69008;SDS011;56065;52.472;13.380;2023-04-01T13:22:55;7.33;;;3.90;;
69008;SDS011;56065;52.472;13.380;2023-04-01T13:28:23;7.85;;;3.97;;
69008;SDS011;56065;52.472;13.380;2023-04-01T13:31:02;9.77;;;4.82;;
69008;SDS011;56065;52.472;13.380;2023-04-01T13:33:38;8.13;;;4.63;;
69008;SDS011;56065;52.472;13.380;2023-04-01T13:44:19;6.70;;;3.80;;
69008;SDS011;56065;52.472;13.380;2023-04-01T13:47:16;8.02;;;4.93;;
69008;SDS011;56065;52.472;13.380;2023-04-01T13:53:02;8.23;;;4.18;;
69008;SDS011;56065;52.472;13.380;2023-04-01T13:58:15;8.57;;;4.30;;
69008;SDS011;56065;52.472;13.380;2023-04-01T14:03:40;10.97;;;5.10;;
69008;SDS011;56065;52.472;13.380;2023-04-01T14:06:19;8.38;;;4.90;;
69008;SDS011;56065;52.472;13.380;2023-04-01T14:14:14;10.45;;;6.13;;
69008;SDS011;56065;52.472;13.380;2023-04-01T14:27:58;8.90;;;5.25;;
69008;SDS011;56065;52.472;13.380;2023-04-01T14:30:40;9.88;;;5.50;;
69008;SDS011;56065;52.472;13.380;2023-04-01T14:36:21;10.88;;;5.72;;
69008;SDS011;56065;52.472;13.380;2023-04-01T14:39:06;8.93;;;5.50;;
69008;SDS011;56065;52.472;13.380;2023-04-01T14:41:48;9.15;;;5.00;;
69008;SDS011;56065;52.472;13.380;2023-04-01T14:44:22;7.47;;;4.50;;
69008;SDS011;56065;52.472;13.380;2023-04-01T14:47:09;10.02;;;4.72;;
69008;SDS011;56065;52.472;13.380;2023-04-01T14:52:43;8.53;;;5.13;;
69008;SDS011;56065;52.472;13.380;2023-04-01T14:55:31;8.25;;;4.28;;
69008;SDS011;56065;52.472;13.380;2023-04-01T14:58:15;7.55;;;4.28;;
69008;SDS011;56065;52.472;13.380;2023-04-01T15:03:30;9.05;;;5.00;;
69008;SDS011;56065;52.472;13.380;2023-04-01T15:09:01;9.82;;;5.30;;
69008;SDS011;56065;52.472;13.380;2023-04-01T15:11:32;8.32;;;4.65;;
69008;SDS011;56065;52.472;13.380;2023-04-01T15:17:05;9.15;;;4.93;;
69008;SDS011;56065;52.472;13.380;2023-04-01T15:19:49;7.63;;;4.40;;
69008;SDS011;56065;52.472;13.380;2023-04-01T15:28:06;9.40;;;4.45;;
69008;SDS011;56065;52.472;13.380;2023-04-01T15:42:04;10.35;;;4.90;;
69008;SDS011;56065;52.472;13.380;2023-04-01T15:49:53;8.90;;;4.18;;
69008;SDS011;56065;52.472;13.380;2023-04-01T16:00:25;9.03;;;3.97;;
69008;SDS011;56065;52.472;13.380;2023-04-01T16:03:14;9.10;;;3.90;;
69008;SDS011;56065;52.472;13.380;2023-04-01T16:19:24;8.47;;;4.70;;
69008;SDS011;56065;52.472;13.380;2023-04-01T16:22:16;9.77;;;4.78;;
69008;SDS011;56065;52.472;13.380;2023-04-01T16:24:46;8.23;;;4.65;;
69008;SDS011;56065;52.472;13.380;2023-04-01T16:35:58;8.68;;;4.43;;
69008;SDS011;56065;52.472;13.380;2023-04-01T16:38:35;10.57;;;5.05;;
69008;SDS011;56065;52.472;13.380;2023-04-01T16:57:11;9.67;;;5.20;;
69008;SDS011;56065;52.472;13.380;2023-04-01T16:59:53;7.72;;;4.43;;
69008;SDS011;56065;52.472;13.380;2023-04-01T17:02:28;8.70;;;4.20;;
69008;SDS011;56065;52.472;13.380;2023-04-01T17:05:00;8.68;;;3.97;;
69008;SDS011;56065;52.472;13.380;2023-04-01T17:07:43;8.60;;;4.38;;
69008;SDS011;56065;52.472;13.380;2023-04-01T17:10:25;8.95;;;4.25;;
69008;SDS011;56065;52.472;13.380;2023-04-01T17:20:55;8.10;;;3.72;;
69008;SDS011;56065;52.472;13.380;2023-04-01T17:23:27;8.70;;;3.75;;
69008;SDS011;56065;52.472;13.380;2023-04-01T17:28:47;7.40;;;4.00;;
69008;SDS011;56065;52.472;13.380;2023-04-01T17:37:17;8.38;;;4.15;;
69008;SDS011;56065;52.472;13.380;2023-04-01T17:42:41;8.80;;;4.43;;
69008;SDS011;56065;52.472;13.380;2023-04-01T17:45:21;8.20;;;4.75;;
69008;SDS011;56065;52.472;13.380;2023-04-01T17:48:16;9.85;;;4.50;;
69008;SDS011;56065;52.472;13.380;2023-04-01T17:50:47;10.07;;;4.47;;
69008;SDS011;56065;52.472;13.380;2023-04-01T17:56:06;8.27;;;4.57;;
69008;SDS011;56065;52.472;13.380;2023-04-01T17:58:46;9.15;;;4.90;;
69008;SDS011;56065;52.472;13.380;2023-04-01T18:01:31;9.20;;;4.97;;
69008;SDS011;56065;52.472;13.380;2023-04-01T18:04:08;10.40;;;4.20;;
69008;SDS011;56065;52.472;13.380;2023-04-01T18:17:21;8.32;;;4.13;;
69008;SDS011;56065;52.472;13.380;2023-04-01T18:22:21;11.87;;;4.27;;
69008;SDS011;56065;52.472;13.380;2023-04-01T18:30:31;8.70;;;3.60;;
69008;SDS011;56065;52.472;13.380;2023-04-01T18:33:09;7.82;;;3.88;;
69008;SDS011;56065;52.472;13.380;2023-04-01T18:39:14;9.55;;;4.20;;
69008;SDS011;56065;52.472;13.380;2023-04-01T18:41:53;10.23;;;4.20;;
69008;SDS011;56065;52.472;13.380;2023-04-01T18:52:24;10.05;;;4.22;;
69008;SDS011;56065;52.472;13.380;2023-04-01T18:57:47;10.20;;;4.40;;
69008;SDS011;56065;52.472;13.380;2023-04-01T19:00:19;8.45;;;3.45;;
69008;SDS011;56065;52.472;13.380;2023-04-01T19:02:51;9.77;;;3.50;;
69008;SDS011;56065;52.472;13.380;2023-04-01T19:05:51;8.73;;;4.20;;
69008;SDS011;56065;52.472;13.380;2023-04-01T19:10:54;9.20;;;4.03;;
69008;SDS011;56065;52.472;13.380;2023-04-01T19:21:21;9.57;;;4.60;;
69008;SDS011;56065;52.472;13.380;2023-04-01T19:35:12;11.33;;;4.90;;
69008;SDS011;56065;52.472;13.380;2023-04-01T19:37:59;9.68;;;4.68;;
69008;SDS011;56065;52.472;13.380;2023-04-01T19:40:52;9.82;;;3.92;;
69008;SDS011;56065;52.472;13.380;2023-04-01T19:48:51;10.93;;;5.00;;
69008;SDS011;56065;52.472;13.380;2023-04-01T19:54:16;11.02;;;4.47;;
69008;SDS011;56065;52.472;13.380;2023-04-01T19:56:52;12.35;;;4.90;;
69008;SDS011;56065;52.472;13.380;2023-04-01T20:00:12;11.35;;;4.75;;
69008;SDS011;56065;52.472;13.380;2023-04-01T20:07:51;14.70;;;6.38;;
69008;SDS011;56065;52.472;13.380;2023-04-01T20:10:29;11.63;;;4.82;;
69008;SDS011;56065;52.472;13.380;2023-04-01T20:15:41;19.57;;;5.53;;
69008;SDS011;56065;52.472;13.380;2023-04-01T20:20:51;11.55;;;5.13;;
69008;SDS011;56065;52.472;13.380;2023-04-01T20:23:33;14.43;;;5.70;;
69008;SDS011;56065;52.472;13.380;2023-04-01T20:26:06;13.00;;;4.97;;
69008;SDS011;56065;52.472;13.380;2023-04-01T20:28:42;11.20;;;5.10;;
69008;SDS011;56065;52.472;13.380;2023-04-01T20:39:14;14.85;;;5.93;;
69008;SDS011;56065;52.472;13.380;2023-04-01T20:46:48;26.88;;;11.27;;
69008;SDS011;56065;52.472;13.380;2023-04-01T20:49:23;12.10;;;5.70;;
69008;SDS011;56065;52.472;13.380;2023-04-01T20:52:02;14.68;;;5.80;;
69008;SDS011;56065;52.472;13.380;2023-04-01T20:57:45;13.67;;;6.00;;
69008;SDS011;56065;52.472;13.380;2023-04-01T21:03:48;11.95;;;4.32;;
69008;SDS011;56065;52.472;13.380;2023-04-01T21:11:45;10.23;;;4.10;;
69008;SDS011;56065;52.472;13.380;2023-04-01T21:25:30;13.17;;;4.23;;
69008;SDS011;56065;52.472;13.380;2023-04-01T21:30:42;10.95;;;4.35;;
69008;SDS011;56065;52.472;13.380;2023-04-01T21:39:17;11.67;;;3.60;;
69008;SDS011;56065;52.472;13.380;2023-04-01T21:50:19;9.23;;;3.35;;
69008;SDS011;56065;52.472;13.380;2023-04-01T22:01:00;10.32;;;3.58;;
69008;SDS011;56065;52.472;13.380;2023-04-01T22:06:37;9.40;;;3.30;;
69008;SDS011;56065;52.472;13.380;2023-04-01T22:09:12;9.73;;;3.20;;
69008;SDS011;56065;52.472;13.380;2023-04-01T22:17:17;9.93;;;3.42;;
69008;SDS011;56065;52.472;13.380;2023-04-01T22:22:48;9.27;;;3.70;;
69008;SDS011;56065;52.472;13.380;2023-04-01T22:27:52;8.93;;;3.43;;
69008;SDS011;56065;52.472;13.380;2023-04-01T22:30:27;8.75;;;3.08;;
69008;SDS011;56065;52.472;13.380;2023-04-01T22:33:11;8.93;;;3.25;;
69008;SDS011;56065;52.472;13.380;2023-04-01T22:36:06;10.60;;;3.67;;
69008;SDS011;56065;52.472;13.380;2023-04-01T22:41:37;7.63;;;2.97;;
69008;SDS011;56065;52.472;13.380;2023-04-01T22:44:31;8.25;;;2.75;;
69008;SDS011;56065;52.472;13.380;2023-04-01T22:47:17;8.15;;;2.72;;
69008;SDS011;56065;52.472;13.380;2023-04-01T22:50:05;8.23;;;2.60;;
69008;SDS011;56065;52.472;13.380;2023-04-01T22:52:46;8.70;;;2.80;;
69008;SDS011;56065;52.472;13.380;2023-04-01T22:55:17;7.17;;;2.50;;
69008;SDS011;56065;52.472;13.380;2023-04-01T22:58:05;8.70;;;3.17;;
69008;SDS011;56065;52.472;13.380;2023-04-01T23:00:39;9.90;;;3.10;;
69008;SDS011;56065;52.472;13.380;2023-04-01T23:03:14;6.95;;;2.58;;
69008;SDS011;56065;52.472;13.380;2023-04-01T23:05:54;11.65;;;4.32;;
69008;SDS011;56065;52.472;13.380;2023-04-01T23:11:08;7.30;;;2.58;;
69008;SDS011;56065;52.472;13.380;2023-04-01T23:13:47;7.10;;;2.85;;
69008;SDS011;56065;52.472;13.380;2023-04-01T23:16:20;8.65;;;3.58;;
69008;SDS011;56065;52.472;13.380;2023-04-01T23:27:06;8.77;;;2.78;;
69008;SDS011;56065;52.472;13.380;2023-04-01T23:29:37;8.98;;;3.00;;
69008;SDS011;56065;52.472;13.380;2023-04-01T23:32:05;7.20;;;3.30;;
69008;SDS011;56065;52.472;13.380;2023-04-01T23:34:58;7.67;;;3.20;;
69008;SDS011;56065;52.472;13.380;2023-04-01T23:37:25;9.40;;;3.03;;
69008;SDS011;56065;52.472;13.380;2023-04-01T23:39:52;9.65;;;3.17;;
69008;SDS011;56065;52.472;13.380;2023-04-01T23:44:55;8.98;;;2.75;;
69008;SDS011;56065;52.472;13.380;2023-04-01T23:47:26;8.20;;;2.40;;
69008;SDS011;56065;52.472;13.380;2023-04-01T23:49:53;8.35;;;2.53;;
69008;SDS011;56065;52.472;13.380;2023-04-01T23:52:25;7.38;;;2.45;;
69008;SDS011;56065;52.472;13.380;2023-04-01T23:54:58;13.13;;;4.45;;
69008;SDS011;56065;52.472;13.380;2023-04-01T23:57:30;6.90;;;2.10;;
